Latest Weather Observations for Kurnell

IDN60901

Issued at 2:21 am EST Saturday 5 September 2015 (issued every 10 minutes, with the page automatically refreshed every 10 minutes)

About weather observations | Map of Sydney area stations | Latest observations for Sydney area | Other Formats
Station Details ID: 066043 Name: KURNELL AWS Lat: -34.00 Lon: 151.21 Height: 4.0 m
Data from the previous 72 hours. | See also: Recent months for locations in New South Wales
Date/Time
EST
Tmp

°C
App
Tmp
°C
Dew
Point
°C
Rel
Hum
%
Delta-T

°C
Wind Press
QNH
hPa
Press
MSL
hPa
Rain
since
9 am
mm
Dir
 
Spd
km/h
Gust
km/h
Spd
kts
Gust
kts
05/02:00am - - - - - NW 11 13 6 7 - - -
05/01:30am - - - - - NW 9 11 5 6 - - -
05/01:00am - - - - - NW 11 13 6 7 - - -
05/12:30am - - - - - NW 15 15 8 8 - - -
05/12:00am - - - - - W 11 13 6 7 - - -
 
Date/Time
EST
Tmp

°C
App
Tmp
°C
Dew
Point
°C
Rel
Hum
%
Delta-T

°C
Wind Press
QNH
hPa
Press
MSL
hPa
Rain
since
9 am
mm
Dir
 
Spd
km/h
Gust
km/h
Spd
kts
Gust
kts
04/11:30pm - - - - - W 11 13 6 7 - - -
04/11:00pm - - - - - CALM 0 6 0 3 - - -
04/10:30pm - - - - - SE 7 7 4 4 - - -
04/10:00pm - - - - - ESE 9 11 5 6 - - -
04/09:30pm - - - - - E 9 13 5 7 - - -
04/09:00pm - - - - - E 7 7 4 4 - - -
04/08:30pm - - - - - SE 7 11 4 6 - - -
04/08:00pm - - - - - ESE 7 9 4 5 - - -
04/07:30pm - - - - - SE 2 7 1 4 - - -
04/07:00pm - - - - - SE 11 15 6 8 - - -
04/06:30pm - - - - - SE 11 15 6 8 - - -
04/06:00pm - - - - - SE 9 11 5 6 - - -
04/05:30pm - - - - - SSE 9 13 5 7 - - -
04/05:00pm - - - - - SSE 15 20 8 11 - - -
04/04:30pm - - - - - SSE 17 22 9 12 - - -
04/04:00pm - - - - - S 20 28 11 15 - - -
04/03:30pm - - - - - S 24 32 13 17 - - -
04/03:00pm - - - - - S 24 37 13 20 - - -
04/02:30pm - - - - - SSW 30 37 16 20 - - -
04/02:00pm - - - - - SSW 33 43 18 23 - - -
04/01:30pm - - - - - SSW 33 46 18 25 - - -
04/01:00pm - - - - - SSW 35 44 19 24 - - -
04/12:30pm - - - - - SSW 35 50 19 27 - - -
04/12:00pm - - - - - SSW 37 50 20 27 - - -
04/11:30am - - - - - SSW 35 48 19 26 - - -
04/11:00am - - - - - SSW 35 48 19 26 - - -
04/10:30am - - - - - SSW 35 48 19 26 - - -
04/10:00am - - - - - SW 33 46 18 25 - - -
04/09:45am - - - - - SSW 33 52 18 28 - - -
04/09:30am - - - - - SSW 35 46 19 25 - - -
04/09:20am - - - - - SSW 33 52 18 28 - - -
04/09:00am - - - - - SSW 35 46 19 25 - - -
04/08:30am - - - - - SSW 33 41 18 22 - - -
04/08:12am - - - - - SSW 33 52 18 28 - - -
04/08:00am - - - - - SSW 35 50 19 27 - - -
04/07:38am - - - - - SSW 32 52 17 28 - - -
04/07:30am - - - - - SSW 28 44 15 24 - - -
04/07:00am - - - - - S 19 30 10 16 - - -
04/06:30am - - - - - SSW 26 35 14 19 - - -
04/06:00am - - - - - SW 32 44 17 24 - - -
04/05:30am - - - - - SW 30 50 16 27 - - -
04/05:26am - - - - - SW 30 50 16 27 - - -
04/05:00am - - - - - SW 35 48 19 26 - - -
04/04:30am - - - - - SW 35 48 19 26 - - -
04/04:00am - - - - - SW 30 44 16 24 - - -
04/03:30am - - - - - SW 30 37 16 20 - - -
04/03:18am - - - - - SW 30 50 16 27 - - -
04/03:00am - - - - - SW 30 41 16 22 - - -
04/02:39am - - - - - SW 30 48 16 26 - - -
04/02:30am - - - - - SW 26 35 14 19 - - -
04/02:00am - - - - - SW 30 43 16 23 - - -
04/01:40am - - - - - SW 30 48 16 26 - - -
04/01:30am - - - - - SW 32 43 17 23 - - -
04/01:00am - - - - - SW 35 50 19 27 - - -
04/12:35am - - - - - SW 39 57 21 31 - - -
04/12:30am - - - - - SW 39 54 21 29 - - -
04/12:14am - - - - - SW 28 48 15 26 - - -
04/12:00am - - - - - SW 30 37 16 20 - - -
 
Date/Time
EST
Tmp

°C
App
Tmp
°C
Dew
Point
°C
Rel
Hum
%
Delta-T

°C
Wind Press
QNH
hPa
Press
MSL
hPa
Rain
since
9 am
mm
Dir
 
Spd
km/h
Gust
km/h
Spd
kts
Gust
kts
03/11:30pm - - - - - SW 37 57 20 31 - - -
03/11:02pm - - - - - SW 39 57 21 31 - - -
03/11:00pm - - - - - SW 41 57 22 31 - - -
03/10:47pm - - - - - WSW 28 52 15 28 - - -
03/10:30pm - - - - - WSW 26 30 14 16 - - -
03/10:00pm - - - - - WSW 30 39 16 21 - - -
03/09:30pm - - - - - WSW 33 41 18 22 - - -
03/09:00pm - - - - - SW 33 46 18 25 - - -
03/08:44pm - - - - - SW 37 56 20 30 - - -
03/08:30pm - - - - - SW 41 57 22 31 - - -
03/08:23pm - - - - - WSW 28 50 15 27 - - -
03/08:00pm - - - - - WSW 28 37 15 20 - - -
03/07:30pm - - - - - WSW 30 39 16 21 - - -
03/07:00pm - - - - - WSW 26 43 14 23 - - -
03/06:30pm - - - - - WSW 26 33 14 18 - - -
03/06:00pm - - - - - WSW 32 41 17 22 - - -
03/05:30pm - - - - - WSW 35 48 19 26 - - -
03/05:00pm - - - - - SW 32 41 17 22 - - -
03/04:30pm - - - - - WSW 39 52 21 28 - - -
03/04:00pm - - - - - WSW 32 44 17 24 - - -
03/03:30pm - - - - - WSW 32 39 17 21 - - -
03/03:00pm - - - - - W 32 41 17 22 - - -
03/02:30pm - - - - - W 32 41 17 22 - - -
03/02:00pm - - - - - W 28 35 15 19 - - -
03/01:59pm - - - - - W 28 35 15 19 - - -
03/01:30pm - - - - - W 37 48 20 26 - - -
03/01:00pm - - - - - W 32 41 17 22 - - -
03/12:30pm - - - - - W 30 37 16 20 - - -
03/12:00pm - - - - - W 28 35 15 19 - - -
03/11:30am - - - - - WNW 26 32 14 17 - - -
03/11:00am - - - - - WNW 28 33 15 18 - - -
03/10:30am - - - - - WNW 30 35 16 19 - - -
03/10:00am - - - - - WNW 17 19 9 10 - - -
03/09:30am - - - - - W 20 24 11 13 - - -
03/09:00am - - - - - WNW 26 30 14 16 - - -
03/08:30am - - - - - WNW 28 32 15 17 - - -
03/08:00am - - - - - NW 22 28 12 15 - - -
03/07:30am - - - - - NW 20 24 11 13 - - -
03/07:00am - - - - - WNW 19 22 10 12 - - -
03/06:30am - - - - - NW 22 26 12 14 - - -
03/06:00am - - - - - WNW 15 19 8 10 - - -
03/05:30am - - - - - NW 19 24 10 13 - - -
03/05:00am - - - - - N 11 13 6 7 - - -
03/04:30am - - - - - NNW 13 17 7 9 - - -
03/04:00am - - - - - N 13 17 7 9 - - -
03/03:30am - - - - - CALM 0 7 0 4 - - -
03/03:00am - - - - - CALM 0 0 0 0 - - -
03/02:30am - - - - - S 11 13 6 7 - - -
03/02:00am - - - - - SE 9 13 5 7 - - -
03/01:30am - - - - - W 7 9 4 5 - - -
03/01:00am - - - - - NNE 11 13 6 7 - - -
03/12:30am - - - - - N 19 28 10 15 - - -
03/12:00am - - - - - WNW 22 35 12 19 - - -
 
Date/Time
EST
Tmp

°C
App
Tmp
°C
Dew
Point
°C
Rel
Hum
%
Delta-T

°C
Wind Press
QNH
hPa
Press
MSL
hPa
Rain
since
9 am
mm
Dir
 
Spd
km/h
Gust
km/h
Spd
kts
Gust
kts
02/11:30pm - - - - - NNE 22 32 12 17 - - -
02/11:00pm - - - - - NNE 28 33 15 18 - - -
02/10:30pm - - - - - NNE 24 30 13 16 - - -
02/10:00pm - - - - - NE 32 37 17 20 - - -
02/09:30pm - - - - - NNE 32 39 17 21 - - -
02/09:00pm - - - - - NNE 28 37 15 20 - - -
02/08:30pm - - - - - NNE 28 35 15 19 - - -
02/08:00pm - - - - - NE 28 33 15 18 - - -
02/07:30pm - - - - - NNE 26 32 14 17 - - -
02/07:00pm - - - - - NNE 28 35 15 19 - - -
02/06:30pm - - - - - NE 22 28 12 15 - - -
02/06:00pm - - - - - NNE 28 33 15 18 - - -
02/05:30pm - - - - - NNE 33 39 18 21 - - -
02/05:00pm - - - - - NE 26 32 14 17 - - -
02/04:30pm - - - - - NE 26 32 14 17 - - -
02/04:00pm - - - - - NE 30 33 16 18 - - -
02/03:30pm - - - - - NE 30 35 16 19 - - -
02/03:00pm - - - - - NE 26 30 14 16 - - -
02/02:30pm - - - - - NE 24 28 13 15 - - -
02/02:00pm - - - - - NE 24 28 13 15 - - -
02/01:30pm - - - - - ENE 24 28 13 15 - - -
02/01:00pm - - - - - ENE 20 26 11 14 - - -
02/12:30pm - - - - - WNW 2 7 1 4 - - -
02/12:00pm - - - - - W 2 7 1 4 - - -
02/11:30am - - - - - WNW 11 13 6 7 - - -
02/11:00am - - - - - NW 13 17 7 9 - - -
02/10:30am - - - - - NW 20 26 11 14 - - -
02/10:00am - - - - - NW 17 22 9 12 - - -
02/09:30am - - - - - NW 15 19 8 10 - - -
02/09:00am - - - - - NW 13 15 7 8 - - -
02/08:30am - - - - - NW 13 17 7 9 - - -
02/08:00am - - - - - NW 11 13 6 7 - - -
02/07:30am - - - - - NW 15 19 8 10 - - -
02/07:00am - - - - - NW 17 19 9 10 - - -
02/06:30am - - - - - NW 15 19 8 10 - - -
02/06:00am - - - - - NNW 17 20 9 11 - - -
02/05:30am - - - - - NW 13 20 7 11 - - -
02/05:00am - - - - - NW 9 13 5 7 - - -
02/04:30am - - - - - NW 7 9 4 5 - - -
02/04:00am - - - - - NW 13 17 7 9 - - -
02/03:30am - - - - - NW 13 17 7 9 - - -
02/03:00am - - - - - NW 11 13 6 7 - - -
02/02:30am - - - - - W 11 13 6 7 - - -

Latest Capital City Observations: Canberra | Sydney | Melbourne | Brisbane | Adelaide | Perth | Hobart | Darwin

Other Formats:

Comma delimited format used in spreadsheet applications
http://www.bom.gov.au/fwo/IDN60901/IDN60901.95756.axf

JavaScript Object Notation format (JSON) in row-major order
http://www.bom.gov.au/fwo/IDN60901/IDN60901.95756.json